sensor_id;sensor_type;location;lat;lon;timestamp;pressure;altitude;pressure_sealevel;temperature;humidity
29247;BME280;16272;48.188;9.964;2023-04-09T00:00:35;96397.91;;;5.37;78.14
29247;BME280;16272;48.188;9.964;2023-04-09T00:03:00;96396.75;;;5.41;77.11
29247;BME280;16272;48.188;9.964;2023-04-09T00:05:26;96398.84;;;5.36;77.67
29247;BME280;16272;48.188;9.964;2023-04-09T00:07:51;96389.06;;;5.63;77.27
29247;BME280;16272;48.188;9.964;2023-04-09T00:10:16;96390.44;;;5.56;76.50
29247;BME280;16272;48.188;9.964;2023-04-09T00:12:42;96385.28;;;5.42;76.53
29247;BME280;16272;48.188;9.964;2023-04-09T00:15:07;96387.28;;;5.51;76.42
29247;BME280;16272;48.188;9.964;2023-04-09T00:17:34;96387.38;;;5.49;77.11
29247;BME280;16272;48.188;9.964;2023-04-09T00:19:59;96386.41;;;5.63;76.31
29247;BME280;16272;48.188;9.964;2023-04-09T00:22:25;96390.22;;;5.59;76.44
29247;BME280;16272;48.188;9.964;2023-04-09T00:24:50;96387.16;;;5.65;76.21
29247;BME280;16272;48.188;9.964;2023-04-09T00:27:16;96383.06;;;5.61;75.85
29247;BME280;16272;48.188;9.964;2023-04-09T00:29:41;96386.84;;;5.31;76.90
29247;BME280;16272;48.188;9.964;2023-04-09T00:32:07;96388.22;;;5.37;77.31
29247;BME280;16272;48.188;9.964;2023-04-09T00:34:32;96388.13;;;5.51;76.46
29247;BME280;16272;48.188;9.964;2023-04-09T00:36:58;96388.13;;;5.51;76.57
29247;BME280;16272;48.188;9.964;2023-04-09T00:39:23;96385.78;;;5.60;76.58
29247;BME280;16272;48.188;9.964;2023-04-09T00:41:49;96383.25;;;5.71;76.35
29247;BME280;16272;48.188;9.964;2023-04-09T00:44:14;96377.78;;;5.74;75.48
29247;BME280;16272;48.188;9.964;2023-04-09T00:46:39;96383.56;;;5.79;74.58
29247;BME280;16272;48.188;9.964;2023-04-09T00:49:05;96374.72;;;5.67;75.51
29247;BME280;16272;48.188;9.964;2023-04-09T00:51:30;96380.63;;;5.58;75.94
29247;BME280;16272;48.188;9.964;2023-04-09T00:53:56;96382.75;;;5.53;75.97
29247;BME280;16272;48.188;9.964;2023-04-09T00:56:23;96382.22;;;5.48;76.58
29247;BME280;16272;48.188;9.964;2023-04-09T00:58:49;96378.81;;;5.46;76.99
29247;BME280;16272;48.188;9.964;2023-04-09T01:01:14;96384.44;;;5.41;76.92
29247;BME280;16272;48.188;9.964;2023-04-09T01:03:40;96379.34;;;5.64;76.30
29247;BME280;16272;48.188;9.964;2023-04-09T01:06:48;96386.72;;;5.71;76.12
29247;BME280;16272;48.188;9.964;2023-04-09T01:09:42;96381.53;;;5.83;74.54
29247;BME280;16272;48.188;9.964;2023-04-09T01:15:10;96378.94;;;5.57;76.29
29247;BME280;16272;48.188;9.964;2023-04-09T01:20:35;96382.84;;;5.51;76.53
29247;BME280;16272;48.188;9.964;2023-04-09T01:23:17;96387.03;;;5.54;77.50
29247;BME280;16272;48.188;9.964;2023-04-09T01:25:58;96381.75;;;5.80;75.37
29247;BME280;16272;48.188;9.964;2023-04-09T01:28:31;96376.88;;;5.86;74.48
29247;BME280;16272;48.188;9.964;2023-04-09T01:31:03;96373.72;;;5.94;74.85
29247;BME280;16272;48.188;9.964;2023-04-09T01:33:32;96369.50;;;5.79;75.13
29247;BME280;16272;48.188;9.964;2023-04-09T01:35:58;96370.09;;;5.58;76.53
29247;BME280;16272;48.188;9.964;2023-04-09T01:38:26;96383.66;;;5.78;76.22
29247;BME280;16272;48.188;9.964;2023-04-09T01:40:53;96372.03;;;5.80;76.07
29247;BME280;16272;48.188;9.964;2023-04-09T01:43:20;96374.47;;;5.70;75.88
29247;BME280;16272;48.188;9.964;2023-04-09T01:45:46;96374.06;;;5.77;74.86
29247;BME280;16272;48.188;9.964;2023-04-09T01:48:22;96368.81;;;5.64;75.85
29247;BME280;16272;48.188;9.964;2023-04-09T01:50:49;96371.53;;;5.62;76.04
29247;BME280;16272;48.188;9.964;2023-04-09T01:53:15;96372.09;;;5.67;75.90
29247;BME280;16272;48.188;9.964;2023-04-09T01:55:44;96367.25;;;5.61;76.21
29247;BME280;16272;48.188;9.964;2023-04-09T01:58:10;96365.03;;;5.55;76.19
29247;BME280;16272;48.188;9.964;2023-04-09T02:00:44;96372.19;;;5.53;76.83
29247;BME280;16272;48.188;9.964;2023-04-09T02:03:33;96375.66;;;5.66;76.56
29247;BME280;16272;48.188;9.964;2023-04-09T02:06:39;96372.50;;;5.61;76.48
29247;BME280;16272;48.188;9.964;2023-04-09T02:09:11;96371.22;;;5.54;76.56
29247;BME280;16272;48.188;9.964;2023-04-09T02:11:39;96370.38;;;5.66;76.39
29247;BME280;16272;48.188;9.964;2023-04-09T02:14:06;96376.06;;;5.73;75.36
29247;BME280;16272;48.188;9.964;2023-04-09T02:16:33;96369.03;;;5.61;76.37
29247;BME280;16272;48.188;9.964;2023-04-09T02:18:59;96377.25;;;5.56;76.59
29247;BME280;16272;48.188;9.964;2023-04-09T02:21:28;96376.72;;;5.64;75.63
29247;BME280;16272;48.188;9.964;2023-04-09T02:23:54;96371.84;;;5.70;75.78
29247;BME280;16272;48.188;9.964;2023-04-09T02:26:20;96374.63;;;5.69;75.24
29247;BME280;16272;48.188;9.964;2023-04-09T02:28:46;96369.78;;;5.63;75.21
29247;BME280;16272;48.188;9.964;2023-04-09T02:31:11;96367.44;;;5.58;75.62
29247;BME280;16272;48.188;9.964;2023-04-09T02:33:36;96365.34;;;5.50;76.96
29247;BME280;16272;48.188;9.964;2023-04-09T02:36:02;96367.56;;;5.44;77.01
29247;BME280;16272;48.188;9.964;2023-04-09T02:38:27;96359.56;;;5.45;76.71
29247;BME280;16272;48.188;9.964;2023-04-09T02:40:52;96369.78;;;5.37;76.95
29247;BME280;16272;48.188;9.964;2023-04-09T02:43:18;96367.75;;;5.28;76.68
29247;BME280;16272;48.188;9.964;2023-04-09T02:45:43;96366.50;;;5.33;77.14
29247;BME280;16272;48.188;9.964;2023-04-09T02:48:08;96359.97;;;5.52;75.91
29247;BME280;16272;48.188;9.964;2023-04-09T02:50:33;96370.69;;;4.97;77.21
29247;BME280;16272;48.188;9.964;2023-04-09T02:52:59;96367.53;;;4.52;79.37
29247;BME280;16272;48.188;9.964;2023-04-09T02:55:24;96365.66;;;4.54;79.98
29247;BME280;16272;48.188;9.964;2023-04-09T02:57:49;96366.47;;;4.95;77.69
29247;BME280;16272;48.188;9.964;2023-04-09T03:00:15;96356.69;;;5.10;77.24
29247;BME280;16272;48.188;9.964;2023-04-09T03:02:40;96357.78;;;5.20;77.14
29247;BME280;16272;48.188;9.964;2023-04-09T03:05:06;96364.91;;;4.92;77.33
29247;BME280;16272;48.188;9.964;2023-04-09T03:07:31;96364.16;;;5.03;77.23
29247;BME280;16272;48.188;9.964;2023-04-09T03:09:57;96360.03;;;4.86;77.53
29247;BME280;16272;48.188;9.964;2023-04-09T03:12:22;96362.28;;;5.05;77.49
29247;BME280;16272;48.188;9.964;2023-04-09T03:14:47;96347.22;;;4.94;76.75
29247;BME280;16272;48.188;9.964;2023-04-09T03:17:13;96352.97;;;4.87;76.78
29247;BME280;16272;48.188;9.964;2023-04-09T03:19:41;96345.94;;;4.87;76.51
29247;BME280;16272;48.188;9.964;2023-04-09T03:22:06;96350.78;;;5.06;76.04
29247;BME280;16272;48.188;9.964;2023-04-09T03:24:32;96348.25;;;5.05;75.93
29247;BME280;16272;48.188;9.964;2023-04-09T03:26:57;96347.84;;;4.98;74.17
29247;BME280;16272;48.188;9.964;2023-04-09T03:29:23;96349.97;;;5.06;74.11
29247;BME280;16272;48.188;9.964;2023-04-09T03:31:48;96347.25;;;5.20;73.80
29247;BME280;16272;48.188;9.964;2023-04-09T03:34:14;96355.13;;;5.20;73.62
29247;BME280;16272;48.188;9.964;2023-04-09T03:36:40;96350.09;;;5.17;74.36
29247;BME280;16272;48.188;9.964;2023-04-09T03:39:05;96354.66;;;4.75;76.62
29247;BME280;16272;48.188;9.964;2023-04-09T03:41:31;96347.31;;;4.93;76.92
29247;BME280;16272;48.188;9.964;2023-04-09T03:43:56;96346.88;;;4.86;76.19
29247;BME280;16272;48.188;9.964;2023-04-09T03:46:21;96347.44;;;5.04;75.94
29247;BME280;16272;48.188;9.964;2023-04-09T03:48:47;96351.44;;;5.10;75.70
29247;BME280;16272;48.188;9.964;2023-04-09T03:51:15;96349.97;;;5.06;75.85
29247;BME280;16272;48.188;9.964;2023-04-09T03:53:42;96351.22;;;4.87;76.05
29247;BME280;16272;48.188;9.964;2023-04-09T03:56:08;96354.06;;;4.97;77.05
29247;BME280;16272;48.188;9.964;2023-04-09T03:58:33;96354.81;;;4.99;76.33
29247;BME280;16272;48.188;9.964;2023-04-09T04:00:59;96353.97;;;5.11;75.87
29247;BME280;16272;48.188;9.964;2023-04-09T04:03:24;96352.91;;;5.14;75.43
29247;BME280;16272;48.188;9.964;2023-04-09T04:05:49;96362.41;;;5.17;74.62
29247;BME280;16272;48.188;9.964;2023-04-09T04:08:15;96356.69;;;5.10;75.17
29247;BME280;16272;48.188;9.964;2023-04-09T04:10:40;96361.97;;;5.10;75.71
29247;BME280;16272;48.188;9.964;2023-04-09T04:13:06;96355.03;;;5.22;75.58
29247;BME280;16272;48.188;9.964;2023-04-09T04:15:33;96358.69;;;5.06;76.45
29247;BME280;16272;48.188;9.964;2023-04-09T04:17:58;96357.34;;;5.13;76.17
29247;BME280;16272;48.188;9.964;2023-04-09T04:20:23;96351.66;;;5.32;74.86
29247;BME280;16272;48.188;9.964;2023-04-09T04:22:49;96359.88;;;5.28;75.18
29247;BME280;16272;48.188;9.964;2023-04-09T04:25:14;96365.16;;;5.15;75.89
29247;BME280;16272;48.188;9.964;2023-04-09T04:27:42;96362.69;;;4.86;77.00
29247;BME280;16272;48.188;9.964;2023-04-09T04:30:08;96368.66;;;4.75;77.81
29247;BME280;16272;48.188;9.964;2023-04-09T04:32:33;96372.06;;;4.90;77.19
29247;BME280;16272;48.188;9.964;2023-04-09T04:34:59;96371.41;;;4.74;77.56
29247;BME280;16272;48.188;9.964;2023-04-09T04:37:24;96367.28;;;4.70;77.43
29247;BME280;16272;48.188;9.964;2023-04-09T04:39:50;96371.59;;;4.71;77.46
29247;BME280;16272;48.188;9.964;2023-04-09T04:42:15;96371.31;;;4.48;78.83
29247;BME280;16272;48.188;9.964;2023-04-09T04:44:42;96370.16;;;4.52;78.44
29247;BME280;16272;48.188;9.964;2023-04-09T04:47:07;96365.00;;;4.51;78.61
29247;BME280;16272;48.188;9.964;2023-04-09T04:49:33;96369.66;;;4.60;78.85
29247;BME280;16272;48.188;9.964;2023-04-09T04:51:58;96373.81;;;4.77;77.52
29247;BME280;16272;48.188;9.964;2023-04-09T04:54:24;96371.41;;;4.74;78.03
29247;BME280;16272;48.188;9.964;2023-04-09T04:56:50;96377.78;;;4.70;78.46
29247;BME280;16272;48.188;9.964;2023-04-09T04:59:15;96377.34;;;4.90;77.87
29247;BME280;16272;48.188;9.964;2023-04-09T05:01:40;96363.03;;;5.07;75.40
29247;BME280;16272;48.188;9.964;2023-04-09T05:04:06;96379.84;;;4.24;79.03
29247;BME280;16272;48.188;9.964;2023-04-09T05:06:31;96380.91;;;3.66;80.50
29247;BME280;16272;48.188;9.964;2023-04-09T05:09:01;96382.09;;;3.17;81.55
29247;BME280;16272;48.188;9.964;2023-04-09T05:11:27;96385.59;;;3.61;81.65
29247;BME280;16272;48.188;9.964;2023-04-09T05:13:52;96385.75;;;3.15;81.49
29247;BME280;16272;48.188;9.964;2023-04-09T05:16:19;96394.72;;;2.96;82.04
29247;BME280;16272;48.188;9.964;2023-04-09T05:18:44;96395.84;;;3.06;82.95
29247;BME280;16272;48.188;9.964;2023-04-09T05:21:10;96405.34;;;2.79;84.28
29247;BME280;16272;48.188;9.964;2023-04-09T05:23:35;96396.81;;;3.20;83.57
29247;BME280;16272;48.188;9.964;2023-04-09T05:26:00;96391.03;;;3.58;81.89
29247;BME280;16272;48.188;9.964;2023-04-09T05:28:26;96396.09;;;3.46;81.51
29247;BME280;16272;48.188;9.964;2023-04-09T05:30:51;96389.03;;;3.90;80.91
29247;BME280;16272;48.188;9.964;2023-04-09T05:33:16;96384.25;;;4.24;79.86
29247;BME280;16272;48.188;9.964;2023-04-09T05:35:42;96388.50;;;4.27;79.59
29247;BME280;16272;48.188;9.964;2023-04-09T05:38:07;96389.72;;;4.48;79.26
29247;BME280;16272;48.188;9.964;2023-04-09T05:40:34;96396.78;;;4.20;79.45
29247;BME280;16272;48.188;9.964;2023-04-09T05:43:00;96403.78;;;3.78;82.30
29247;BME280;16272;48.188;9.964;2023-04-09T05:45:25;96402.25;;;3.17;85.06
29247;BME280;16272;48.188;9.964;2023-04-09T05:47:53;96397.59;;;3.65;84.13
29247;BME280;16272;48.188;9.964;2023-04-09T05:50:19;96393.63;;;3.86;82.95
29247;BME280;16272;48.188;9.964;2023-04-09T05:52:44;96398.41;;;4.09;84.28
29247;BME280;16272;48.188;9.964;2023-04-09T05:55:10;96393.97;;;4.64;81.40
29247;BME280;16272;48.188;9.964;2023-04-09T05:57:35;96396.09;;;4.99;79.61
29247;BME280;16272;48.188;9.964;2023-04-09T06:00:00;96390.13;;;5.35;78.67
29247;BME280;16272;48.188;9.964;2023-04-09T06:02:27;96389.38;;;5.46;77.80
29247;BME280;16272;48.188;9.964;2023-04-09T06:04:52;96387.44;;;5.74;77.63
29247;BME280;16272;48.188;9.964;2023-04-09T06:07:18;96386.19;;;5.79;77.76
29247;BME280;16272;48.188;9.964;2023-04-09T06:09:43;96396.66;;;6.31;75.69
29247;BME280;16272;48.188;9.964;2023-04-09T06:12:12;96398.22;;;5.96;75.45
29247;BME280;16272;48.188;9.964;2023-04-09T06:14:37;96397.81;;;5.51;76.42
29247;BME280;16272;48.188;9.964;2023-04-09T06:17:03;96401.88;;;6.06;75.75
29247;BME280;16272;48.188;9.964;2023-04-09T06:19:28;96398.59;;;5.90;76.90
29247;BME280;16272;48.188;9.964;2023-04-09T06:21:53;96402.47;;;6.23;75.44
29247;BME280;16272;48.188;9.964;2023-04-09T06:24:18;96402.44;;;6.60;74.88
29247;BME280;16272;48.188;9.964;2023-04-09T06:26:44;96405.88;;;6.73;73.41
29247;BME280;16272;48.188;9.964;2023-04-09T06:29:10;96404.22;;;6.84;73.69
29247;BME280;16272;48.188;9.964;2023-04-09T06:31:35;96405.25;;;6.46;73.78
29247;BME280;16272;48.188;9.964;2023-04-09T06:34:00;96402.25;;;6.98;72.72
29247;BME280;16272;48.188;9.964;2023-04-09T06:36:26;96397.09;;;7.08;73.29
29247;BME280;16272;48.188;9.964;2023-04-09T06:38:52;96404.88;;;6.87;72.63
29247;BME280;16272;48.188;9.964;2023-04-09T06:41:22;96393.56;;;7.21;73.20
29247;BME280;16272;48.188;9.964;2023-04-09T06:43:48;96398.63;;;6.64;74.44
29247;BME280;16272;48.188;9.964;2023-04-09T06:46:15;96402.03;;;7.48;72.63
29247;BME280;16272;48.188;9.964;2023-04-09T06:48:45;96396.72;;;7.37;71.69
29247;BME280;16272;48.188;9.964;2023-04-09T06:51:11;96400.41;;;7.34;72.01
29247;BME280;16272;48.188;9.964;2023-04-09T06:53:37;96401.22;;;8.04;70.69
29247;BME280;16272;48.188;9.964;2023-04-09T06:56:04;96393.44;;;8.90;68.37
29247;BME280;16272;48.188;9.964;2023-04-09T06:58:30;96403.13;;;8.80;67.54
29247;BME280;16272;48.188;9.964;2023-04-09T07:00:55;96404.56;;;8.18;68.59
29247;BME280;16272;48.188;9.964;2023-04-09T07:03:21;96408.47;;;7.22;69.48
29247;BME280;16272;48.188;9.964;2023-04-09T07:05:46;96400.78;;;7.30;70.74
29247;BME280;16272;48.188;9.964;2023-04-09T07:08:14;96415.84;;;7.05;70.68
29247;BME280;16272;48.188;9.964;2023-04-09T07:10:39;96426.31;;;7.18;71.00
29247;BME280;16272;48.188;9.964;2023-04-09T07:13:05;96426.97;;;6.49;71.48
29247;BME280;16272;48.188;9.964;2023-04-09T07:15:38;96430.88;;;6.06;76.61
29247;BME280;16272;48.188;9.964;2023-04-09T07:18:04;96437.63;;;6.23;75.74
29247;BME280;16272;48.188;9.964;2023-04-09T07:20:30;96439.44;;;6.10;75.68
29247;BME280;16272;48.188;9.964;2023-04-09T07:22:55;96430.22;;;6.29;75.30
29247;BME280;16272;48.188;9.964;2023-04-09T07:25:20;96430.81;;;6.69;75.18
29247;BME280;16272;48.188;9.964;2023-04-09T07:27:46;96425.47;;;6.58;74.13
29247;BME280;16272;48.188;9.964;2023-04-09T07:30:17;96435.78;;;6.37;76.08
29247;BME280;16272;48.188;9.964;2023-04-09T07:32:47;96431.16;;;6.65;75.34
29247;BME280;16272;48.188;9.964;2023-04-09T07:35:12;96428.44;;;7.37;71.43
29247;BME280;16272;48.188;9.964;2023-04-09T07:37:38;96437.00;;;6.20;74.76
29247;BME280;16272;48.188;9.964;2023-04-09T07:40:06;96447.66;;;6.18;75.79
29247;BME280;16272;48.188;9.964;2023-04-09T07:42:36;96449.94;;;6.60;73.27
29247;BME280;16272;48.188;9.964;2023-04-09T07:45:05;96455.34;;;5.96;74.46
29247;BME280;16272;48.188;9.964;2023-04-09T07:47:34;96451.28;;;6.41;73.81
29247;BME280;16272;48.188;9.964;2023-04-09T07:50:00;96458.50;;;5.62;75.17
29247;BME280;16272;48.188;9.964;2023-04-09T07:52:25;96458.94;;;5.56;77.03
29247;BME280;16272;48.188;9.964;2023-04-09T07:54:51;96462.22;;;5.73;76.59
29247;BME280;16272;48.188;9.964;2023-04-09T07:57:16;96460.94;;;6.54;74.28
29247;BME280;16272;48.188;9.964;2023-04-09T07:59:42;96452.22;;;6.03;75.86
29247;BME280;16272;48.188;9.964;2023-04-09T08:02:09;96454.56;;;6.32;73.84
29247;BME280;16272;48.188;9.964;2023-04-09T08:04:34;96459.50;;;6.50;72.46
29247;BME280;16272;48.188;9.964;2023-04-09T08:07:00;96449.63;;;7.60;69.10
29247;BME280;16272;48.188;9.964;2023-04-09T08:09:25;96458.34;;;7.02;71.42
29247;BME280;16272;48.188;9.964;2023-04-09T08:11:51;96458.81;;;6.59;74.17
29247;BME280;16272;48.188;9.964;2023-04-09T08:14:17;96466.22;;;7.26;71.80
29247;BME280;16272;48.188;9.964;2023-04-09T08:16:44;96462.75;;;7.26;69.84
29247;BME280;16272;48.188;9.964;2023-04-09T08:19:11;96458.94;;;7.06;70.81
29247;BME280;16272;48.188;9.964;2023-04-09T08:21:38;96462.50;;;7.29;71.82
29247;BME280;16272;48.188;9.964;2023-04-09T08:24:04;96460.94;;;8.41;68.85
29247;BME280;16272;48.188;9.964;2023-04-09T08:26:34;96453.03;;;8.07;69.46
29247;BME280;16272;48.188;9.964;2023-04-09T08:28:59;96459.75;;;8.00;67.16
29247;BME280;16272;48.188;9.964;2023-04-09T08:31:25;96446.50;;;7.54;66.95
29247;BME280;16272;48.188;9.964;2023-04-09T08:33:50;96453.09;;;7.13;69.79
29247;BME280;16272;48.188;9.964;2023-04-09T08:36:17;96456.84;;;7.58;70.16
29247;BME280;16272;48.188;9.964;2023-04-09T08:38:43;96457.59;;;7.71;69.44
29247;BME280;16272;48.188;9.964;2023-04-09T08:41:19;96456.59;;;7.49;67.60
29247;BME280;16272;48.188;9.964;2023-04-09T08:43:46;96457.34;;;8.08;66.99
29247;BME280;16272;48.188;9.964;2023-04-09T08:46:15;96446.31;;;8.48;67.11
29247;BME280;16272;48.188;9.964;2023-04-09T08:48:45;96447.50;;;8.44;68.68
29247;BME280;16272;48.188;9.964;2023-04-09T08:51:18;96453.28;;;8.15;68.88
29247;BME280;16272;48.188;9.964;2023-04-09T08:53:46;96456.41;;;8.32;68.07
29247;BME280;16272;48.188;9.964;2023-04-09T08:56:13;96447.75;;;9.28;64.97
29247;BME280;16272;48.188;9.964;2023-04-09T08:58:43;96443.09;;;10.15;66.89
29247;BME280;16272;48.188;9.964;2023-04-09T09:01:27;96451.59;;;10.39;63.24
29247;BME280;16272;48.188;9.964;2023-04-09T09:06:31;96440.56;;;11.63;63.30
29247;BME280;16272;48.188;9.964;2023-04-09T09:09:11;96443.16;;;9.72;65.49
29247;BME280;16272;48.188;9.964;2023-04-09T09:11:46;96450.25;;;10.55;63.77
29247;BME280;16272;48.188;9.964;2023-04-09T09:14:17;96435.63;;;10.80;63.18
29247;BME280;16272;48.188;9.964;2023-04-09T09:16:45;96448.66;;;10.11;62.42
29247;BME280;16272;48.188;9.964;2023-04-09T09:19:29;96442.47;;;10.01;64.89
29247;BME280;16272;48.188;9.964;2023-04-09T09:21:55;96443.34;;;10.11;61.60
29247;BME280;16272;48.188;9.964;2023-04-09T09:24:21;96443.19;;;10.75;62.11
29247;BME280;16272;48.188;9.964;2023-04-09T09:26:47;96441.69;;;11.11;61.37
29247;BME280;16272;48.188;9.964;2023-04-09T09:29:12;96427.81;;;11.37;57.75
29247;BME280;16272;48.188;9.964;2023-04-09T09:31:48;96440.59;;;10.23;58.32
29247;BME280;16272;48.188;9.964;2023-04-09T09:34:15;96433.13;;;10.38;59.45
29247;BME280;16272;48.188;9.964;2023-04-09T09:36:45;96441.69;;;10.41;63.04
29247;BME280;16272;48.188;9.964;2023-04-09T09:39:12;96427.94;;;11.65;59.04
29247;BME280;16272;48.188;9.964;2023-04-09T09:41:38;96432.41;;;10.66;55.84
29247;BME280;16272;48.188;9.964;2023-04-09T09:44:05;96432.19;;;9.87;60.08
29247;BME280;16272;48.188;9.964;2023-04-09T09:46:40;96425.34;;;9.84;60.83
29247;BME280;16272;48.188;9.964;2023-04-09T09:49:07;96435.47;;;9.48;58.94
29247;BME280;16272;48.188;9.964;2023-04-09T09:51:45;96424.53;;;10.55;59.11
29247;BME280;16272;48.188;9.964;2023-04-09T09:54:11;96416.50;;;10.96;58.37
29247;BME280;16272;48.188;9.964;2023-04-09T09:56:39;96428.94;;;9.52;57.54
29247;BME280;16272;48.188;9.964;2023-04-09T09:59:19;96413.69;;;9.75;59.05
29247;BME280;16272;48.188;9.964;2023-04-09T10:02:06;96414.94;;;10.93;55.01
29247;BME280;16272;48.188;9.964;2023-04-09T10:04:36;96398.56;;;11.37;51.14
29247;BME280;16272;48.188;9.964;2023-04-09T10:07:09;96411.72;;;10.90;49.80
29247;BME280;16272;48.188;9.964;2023-04-09T10:09:36;96399.59;;;12.76;46.68
29247;BME280;16272;48.188;9.964;2023-04-09T10:12:03;96400.16;;;12.52;47.79
29247;BME280;16272;48.188;9.964;2023-04-09T10:14:30;96408.91;;;10.81;50.47
29247;BME280;16272;48.188;9.964;2023-04-09T10:16:56;96409.22;;;10.88;49.87
29247;BME280;16272;48.188;9.964;2023-04-09T10:19:21;96395.78;;;11.38;51.58
29247;BME280;16272;48.188;9.964;2023-04-09T10:21:57;96414.34;;;10.70;52.88
29247;BME280;16272;48.188;9.964;2023-04-09T10:24:23;96409.72;;;10.53;51.57
29247;BME280;16272;48.188;9.964;2023-04-09T10:26:53;96414.94;;;11.42;51.72
29247;BME280;16272;48.188;9.964;2023-04-09T10:29:26;96392.66;;;12.38;53.11
29247;BME280;16272;48.188;9.964;2023-04-09T10:32:05;96404.16;;;11.44;58.21
29247;BME280;16272;48.188;9.964;2023-04-09T10:34:38;96407.97;;;10.32;59.49
29247;BME280;16272;48.188;9.964;2023-04-09T10:37:08;96412.25;;;10.64;52.77
29247;BME280;16272;48.188;9.964;2023-04-09T10:39:39;96411.97;;;10.67;51.53
29247;BME280;16272;48.188;9.964;2023-04-09T10:42:14;96411.81;;;10.59;50.27
29247;BME280;16272;48.188;9.964;2023-04-09T10:44:41;96402.22;;;10.77;50.21
29247;BME280;16272;48.188;9.964;2023-04-09T10:47:07;96402.94;;;12.60;53.26
29247;BME280;16272;48.188;9.964;2023-04-09T10:49:38;96383.94;;;13.45;46.55
29247;BME280;16272;48.188;9.964;2023-04-09T10:52:11;96392.00;;;12.99;47.05
29247;BME280;16272;48.188;9.964;2023-04-09T10:54:38;96395.09;;;12.59;46.31
29247;BME280;16272;48.188;9.964;2023-04-09T10:59:48;96383.78;;;13.47;44.87
29247;BME280;16272;48.188;9.964;2023-04-09T11:07:50;96375.63;;;12.30;49.63
29247;BME280;16272;48.188;9.964;2023-04-09T11:10:18;96374.97;;;12.46;49.18
29247;BME280;16272;48.188;9.964;2023-04-09T11:12:50;96373.06;;;12.39;53.66
29247;BME280;16272;48.188;9.964;2023-04-09T11:15:19;96378.84;;;11.97;53.81
29247;BME280;16272;48.188;9.964;2023-04-09T11:17:48;96377.56;;;13.46;41.91
29247;BME280;16272;48.188;9.964;2023-04-09T11:20:16;96377.47;;;12.94;48.59
29247;BME280;16272;48.188;9.964;2023-04-09T11:22:41;96370.16;;;12.78;53.60
29247;BME280;16272;48.188;9.964;2023-04-09T11:25:07;96360.22;;;13.94;46.27
29247;BME280;16272;48.188;9.964;2023-04-09T11:27:43;96359.19;;;14.22;44.74
29247;BME280;16272;48.188;9.964;2023-04-09T11:30:09;96353.09;;;13.77;46.85
29247;BME280;16272;48.188;9.964;2023-04-09T11:32:36;96371.94;;;12.77;52.37
29247;BME280;16272;48.188;9.964;2023-04-09T11:35:04;96372.56;;;13.25;53.24
29247;BME280;16272;48.188;9.964;2023-04-09T11:37:29;96365.31;;;14.14;46.46
29247;BME280;16272;48.188;9.964;2023-04-09T11:39:55;96361.44;;;14.51;39.19
29247;BME280;16272;48.188;9.964;2023-04-09T11:42:30;96360.91;;;13.70;43.25
29247;BME280;16272;48.188;9.964;2023-04-09T11:44:55;96360.59;;;13.29;44.31
29247;BME280;16272;48.188;9.964;2023-04-09T11:47:22;96355.41;;;14.41;42.41
29247;BME280;16272;48.188;9.964;2023-04-09T11:49:47;96358.41;;;14.46;39.65
29247;BME280;16272;48.188;9.964;2023-04-09T11:52:13;96363.44;;;14.06;39.81
29247;BME280;16272;48.188;9.964;2023-04-09T11:54:40;96362.22;;;13.04;44.33
29247;BME280;16272;48.188;9.964;2023-04-09T11:57:06;96363.25;;;14.00;44.26
29247;BME280;16272;48.188;9.964;2023-04-09T11:59:31;96368.91;;;13.08;44.70
29247;BME280;16272;48.188;9.964;2023-04-09T12:01:57;96362.81;;;13.34;44.31
29247;BME280;16272;48.188;9.964;2023-04-09T12:04:23;96365.16;;;13.55;40.89
29247;BME280;16272;48.188;9.964;2023-04-09T12:06:48;96369.00;;;12.98;44.55
29247;BME280;16272;48.188;9.964;2023-04-09T12:09:14;96364.28;;;13.28;44.76
29247;BME280;16272;48.188;9.964;2023-04-09T12:11:42;96360.03;;;14.65;40.62
29247;BME280;16272;48.188;9.964;2023-04-09T12:14:16;96354.19;;;14.27;38.61
29247;BME280;16272;48.188;9.964;2023-04-09T12:16:42;96359.69;;;12.66;45.31
29247;BME280;16272;48.188;9.964;2023-04-09T12:19:11;96369.97;;;11.58;46.58
29247;BME280;16272;48.188;9.964;2023-04-09T12:21:54;96368.69;;;12.10;47.76
29247;BME280;16272;48.188;9.964;2023-04-09T12:24:24;96370.88;;;12.24;44.51
29247;BME280;16272;48.188;9.964;2023-04-09T12:26:50;96367.22;;;12.25;49.20
29247;BME280;16272;48.188;9.964;2023-04-09T12:29:18;96368.47;;;11.93;43.70
29247;BME280;16272;48.188;9.964;2023-04-09T12:31:44;96366.63;;;11.56;42.42
29247;BME280;16272;48.188;9.964;2023-04-09T12:34:12;96354.03;;;11.49;46.21
29247;BME280;16272;48.188;9.964;2023-04-09T12:36:38;96359.38;;;11.39;49.08
29247;BME280;16272;48.188;9.964;2023-04-09T12:39:06;96360.38;;;11.75;47.99
29247;BME280;16272;48.188;9.964;2023-04-09T12:41:31;96360.78;;;11.43;43.67
29247;BME280;16272;48.188;9.964;2023-04-09T12:43:56;96361.81;;;11.70;47.11
29247;BME280;16272;48.188;9.964;2023-04-09T12:46:22;96358.44;;;12.43;44.22
29247;BME280;16272;48.188;9.964;2023-04-09T12:48:47;96358.97;;;12.92;45.81
29247;BME280;16272;48.188;9.964;2023-04-09T12:51:13;96359.03;;;12.37;47.89
29247;BME280;16272;48.188;9.964;2023-04-09T12:53:38;96350.59;;;11.76;44.08
29247;BME280;16272;48.188;9.964;2023-04-09T12:56:04;96355.03;;;11.85;44.78
29247;BME280;16272;48.188;9.964;2023-04-09T12:58:30;96364.69;;;11.39;47.60
29247;BME280;16272;48.188;9.964;2023-04-09T13:00:57;96349.03;;;11.16;47.52
29247;BME280;16272;48.188;9.964;2023-04-09T13:03:23;96362.56;;;11.52;46.92
29247;BME280;16272;48.188;9.964;2023-04-09T13:05:48;96358.69;;;11.84;48.56
29247;BME280;16272;48.188;9.964;2023-04-09T13:08:14;96360.13;;;12.16;47.93
29247;BME280;16272;48.188;9.964;2023-04-09T13:10:40;96347.50;;;12.18;43.92
29247;BME280;16272;48.188;9.964;2023-04-09T13:13:06;96366.88;;;11.63;48.43
29247;BME280;16272;48.188;9.964;2023-04-09T13:15:36;96346.28;;;12.12;46.90
29247;BME280;16272;48.188;9.964;2023-04-09T13:18:02;96346.28;;;12.58;44.14
29247;BME280;16272;48.188;9.964;2023-04-09T13:20:27;96343.75;;;12.39;45.26
29247;BME280;16272;48.188;9.964;2023-04-09T13:22:52;96338.28;;;12.58;49.31
29247;BME280;16272;48.188;9.964;2023-04-09T13:25:18;96333.19;;;12.83;47.28